Terminal Aerodrome Forecast
Issued by NWS Mt. Holly, NJ

Home | Current Version | Previous Version | Text Only | Print | Product List | Glossary On
Versions: 1 2 3 4 5 6 7 8 9 10 11 12 13 14 15 16 17 18
000
FTUS41 KPHI 020500
TAFABE
TAF
KABE 020530Z 0206/0306 04003KT P6SM -SHRA SCT016 OVC080
      TEMPO 0206/0209 5SM RA BR BKN016 OVC035
     FM020900 06003KT 4SM -RA BR BKN020 OVC050
      TEMPO 0210/0214 2SM RA BR BKN008 OVC010
     FM021700 09006KT P6SM BKN050
     FM030500 11003KT P6SM BKN025 OVC050=

USA.gov is the U.S. government's official web portal to all federal, state and local government web resources and services.